• Join FlightAware (Why Join?)
  • Login
  • US Flag 
12:21PM EDT


 

Airport Tracker/Info


-or-


 

Live Flight TrackerFlight Track Log ✈ SWA1903 ✈ 10-May-2013 ✈ KPHX - KSLC

Flight Track Log - Related Links

Times and Time Zones

All times are in EDT time to prevent confusion due to time zone crossing. See the SWA1903 flight status page for this flight to view local times or setup timezone preferences in your user account.

Time Position Orientation Groundspeed Altitude Reporting Facility
EDT Latitude Longitude Course Direction KTS MPH feet Rate Location/Type
02:56PM 33.4333 -112.0333 270° West 173 199 2,200  Level Phoenix TRACON
02:57PM 33.4333 -112.1167 270° West 219 252 4,000 1,980 Climbing Phoenix TRACON
02:58PM 33.4333 -112.1392 270° West 207 238 5,200 2,160 Climbing Albuquerque Center
02:59PM 33.4639 -112.2064 299° West 256 295 7,100 2,340 Climbing Albuquerque Center
03:00PM 33.5328 -112.1728 22° Northeast 275 316 10,100 2,640 Climbing Albuquerque Center
03:01PM 33.6022 -112.1156 34° Northeast 297 342 12,600 2,760 Climbing Albuquerque Center
03:02PM 33.6756 -112.0536 35° Northeast 319 367 15,900 3,060 Climbing Albuquerque Center
03:03PM 33.7519 -111.9872 36° Northeast 332 382 19,000 2,400 Climbing Albuquerque Center
03:04PM 33.8381 -111.9150 35° Northeast 346 398 20,900 2,100 Climbing Albuquerque Center
03:05PM 33.9372 -111.8633 23° Northeast 401 461 23,400 2,520 Climbing Albuquerque Center
03:06PM 34.0706 -111.8806 354° North 404 465 26,200 2,280 Climbing Albuquerque Center
03:07PM 34.1847 -111.8956 354° North 411 473 28,100 1,920 Climbing Albuquerque Center
03:08PM 34.3011 -111.9111 354° North 419 482 30,200 1,980 Climbing Albuquerque Center
03:09PM 34.4172 -111.9275 353° North 421 484 32,200 1,620 Climbing Albuquerque Center
03:10PM 34.5325 -111.9442 353° North 418 481 33,600 840 Climbing Albuquerque Center
03:11PM 34.6453 -111.9597 354° North 411 473 34,000 180 Climbing Albuquerque Center
03:12PM 34.7717 -111.9778 353° North 407 468 34,000  Level Albuquerque Center
03:13PM 34.8833 -111.9928 354° North 407 468 34,000  Level Albuquerque Center
03:14PM 34.9953 -112.0094 353° North 407 468 34,000  Level Albuquerque Center
03:15PM 35.1086 -112.0244 354° North 412 474 34,000  Level Albuquerque Center
03:16PM 35.2425 -112.0439 353° North 409 471 34,000  Level Albuquerque Center
03:17PM 35.3558 -112.0592 354° North 412 474 34,000  Level Albuquerque Center
03:18PM 35.4669 -112.0750 353° North 408 470 34,000  Level Albuquerque Center
03:19PM 35.5797 -112.0911 353° North 411 473 34,000  Level Albuquerque Center
03:20PM 35.7128 -112.1089 354° North 407 468 34,000  Level Los Angeles Center
03:21PM 35.8236 -112.1253 353° North 405 466 34,000  Level Los Angeles Center
03:22PM 35.9333 -112.1414 353° North 401 461 34,000 600 Level Los Angeles Center
03:24PM 36.0681 -112.1550 355° North 408 470 35,300 960 Climbing Los Angeles Center
03:25PM 36.1819 -112.1644 356° North 412 474 36,000 240 Climbing Los Angeles Center
03:26PM 36.3492 -112.1625 North 419 482 36,000  Level Salt Lake Center
03:27PM 36.4389 -112.1392 12° North 413 475 36,000  Level Los Angeles Center
03:28PM 36.5503 -112.1117 11° North 411 473 36,000  Level Los Angeles Center
03:29PM 36.6633 -112.0825 12° North 414 476 36,000 -240 Level Los Angeles Center
03:30PM 36.7969 -112.0494 11° North 410 472 35,600 -720 Descending Los Angeles Center
03:31PM 36.9050 -112.0217 12° North 401 461 34,600 -780 Descending Los Angeles Center
03:32PM 37.0147 -112.0356 354° North 404 465 34,000 -300 Descending Los Angeles Center
03:33PM 37.1225 -112.0572 351° North 395 455 34,000  Level Los Angeles Center
03:34PM 37.2303 -112.0778 351° North 394 453 34,000  Level Los Angeles Center
03:35PM 37.3614 -112.1050 351° North 398 458 34,000  Level Los Angeles Center
03:35PM 37.3831 -112.1128 344° North 399 459 34,000  Level Salt Lake Center
03:36PM 37.4703 -112.1447 344° North 406 467 34,000  Level Los Angeles Center
03:36PM 37.4917 -112.1511 347° North 407 468 34,000  Level Salt Lake Center
03:37PM 37.6025 -112.1378 North 405 466 34,000  Level Salt Lake Center
03:38PM 37.7339 -112.1108 North 402 463 34,000  Level Salt Lake Center
03:40PM 37.8419 -112.0886 North 397 457 34,000  Level Salt Lake Center
03:41PM 37.9506 -112.0675 North 396 456 34,000  Level Salt Lake Center
03:42PM 38.0586 -112.0467 North 395 455 34,000  Level Salt Lake Center
03:43PM 38.1675 -112.0267 North 396 456 34,000  Level Salt Lake Center
03:44PM 38.2778 -112.0269 360° North 397 457 34,000  Level Salt Lake Center
03:45PM 38.4122 -112.0239 North 402 463 34,000  Level Salt Lake Center
03:46PM 38.5253 -112.0206 North 406 467 34,000  Level Salt Lake Center
03:47PM 38.6372 -112.0414 352° North 409 471 34,000  Level Salt Lake Center
03:48PM 38.7492 -112.0683 349° North 411 473 34,000 -240 Level Salt Lake Center
03:49PM 38.8617 -112.0956 349° North 411 473 33,600 -660 Descending Salt Lake Center
03:50PM 38.9758 -112.1039 357° North 413 475 32,700 -1,140 Descending Salt Lake Center
03:51PM 39.0886 -112.0914 North 409 471 31,300 -1,560 Descending Salt Lake Center
03:52PM 39.2161 -112.0756 North 387 445 29,500 -2,160 Descending Salt Lake Center
03:53PM 39.3103 -112.0647 North 393 452 26,900 -2,580 Descending Salt Lake Center
03:54PM 39.4400 -112.0481 North 394 453 24,300 -2,280 Descending Salt Lake Center
03:55PM 39.5433 -112.0361 North 380 437 22,300 -1,980 Descending Salt Lake Center
03:56PM 39.6417 -112.0253 North 364 419 20,300 -1,980 Descending Salt Lake Center
03:57PM 39.7383 -112.0139 North 353 406 18,300 -1,920 Descending Salt Lake Center
03:58PM 39.8339 -112.0014 North 347 399 16,400 -1,860 Descending Salt Lake Center
03:59PM 39.9042 -111.9997 North 348 400 15,200 -1,380 Descending Salt Lake Center
03:59PM 39.9275 -111.9897 18° North 338 389 15,000 -420 Descending Salt Lake Center
04:00PM 39.9906 -111.9906 359° North 302 348 14,800 -540 Descending Salt Lake Center
04:00PM 40.0106 -111.9783 25° Northeast 303 349 14,500 -1,140 Descending Salt Lake Center
04:01PM 40.0744 -111.9792 359° North 299 344 13,700 -1,200 Descending Salt Lake Center
04:01PM 40.1100 -111.9658 16° North 301 346 13,300 -1,020 Descending Salt Lake Center
04:02PM 40.1589 -111.9703 356° North 296 341 12,700 -1,020 Descending Salt Lake Center
04:02PM 40.1908 -111.9594 15° North 294 338 12,300 -1,020 Descending Salt Lake Center
04:03PM 40.2422 -111.9675 353° North 294 338 11,700 -1,020 Descending Salt Lake Center
04:04PM 40.3236 -111.9653 North 295 339 10,700 -1,020 Descending Salt Lake Center
04:04PM 40.3544 -111.9581 10° North 293 337 10,300 -780 Descending Salt Lake Center
04:05PM 40.3983 -111.9625 356° North 291 335 10,000 -720 Descending Salt Lake Center
04:05PM 40.4347 -111.9561 North 290 334 9,600 -1,020 Descending Salt Lake Center
04:06PM 40.4764 -111.9642 352° North 284 327 9,000 -720 Descending Salt Lake Center
04:06PM 40.5119 -111.9647 359° North 280 322 8,900 -420 Descending Salt Lake Center
04:07PM 40.5511 -111.9728 351° North 258 297 8,600 -900 Descending Salt Lake Center
04:07PM 40.5814 -111.9725 360° North 254 292 8,000 -1,380 Descending Salt Lake Center
04:08PM 40.6217 -111.9800 352° North 253 291 7,200 -1,380 Descending Salt Lake Center
04:08PM 40.6603 -111.9814 358° North 231 266 6,600 -900 Descending Salt Lake Center
04:09PM 40.6808 -111.9853 352° North 197 227 6,300 -900 Descending Salt Lake Center
04:09PM 40.7078 -111.9869 357° North 175 201 5,700 -1,080 Descending Salt Lake Center
04:10PM 40.7253 -111.9928 346° North 153 176 5,100 -900 Descending Salt Lake Center
04:10PM 40.7467 -111.9914 North 145 167 4,800 -720 Descending Salt Lake Center
04:11PM 40.7692 -111.9978 348° North 143 165 4,300 -720 Descending Salt Lake Center
04:11PM 40.7861 -111.9967 North 142 163 4,100 -480 Descending Salt Lake Center
04:13PM 40.7884 -111.9778 North  Level Estimated